sensor_id;sensor_type;location;lat;lon;timestamp;P1;durP1;ratioP1;P2;durP2;ratioP2
82005;SDS011;71529;47.484;19.064;2023-07-30T00:00:40;4.45;;;3.20;;
82005;SDS011;71529;47.484;19.064;2023-07-30T00:03:08;7.15;;;3.10;;
82005;SDS011;71529;47.484;19.064;2023-07-30T00:05:36;5.97;;;3.22;;
82005;SDS011;71529;47.484;19.064;2023-07-30T00:08:04;5.40;;;2.97;;
82005;SDS011;71529;47.484;19.064;2023-07-30T00:10:34;6.55;;;2.78;;
82005;SDS011;71529;47.484;19.064;2023-07-30T00:13:03;3.40;;;2.50;;
82005;SDS011;71529;47.484;19.064;2023-07-30T00:15:32;2.67;;;2.33;;
82005;SDS011;71529;47.484;19.064;2023-07-30T00:18:01;4.45;;;2.70;;
82005;SDS011;71529;47.484;19.064;2023-07-30T00:20:29;3.60;;;2.40;;
82005;SDS011;71529;47.484;19.064;2023-07-30T00:22:57;6.53;;;2.97;;
82005;SDS011;71529;47.484;19.064;2023-07-30T00:25:25;4.05;;;2.60;;
82005;SDS011;71529;47.484;19.064;2023-07-30T00:27:53;3.58;;;2.30;;
82005;SDS011;71529;47.484;19.064;2023-07-30T00:30:21;6.75;;;2.72;;
82005;SDS011;71529;47.484;19.064;2023-07-30T00:32:49;3.97;;;2.53;;
82005;SDS011;71529;47.484;19.064;2023-07-30T00:35:19;2.95;;;2.40;;
82005;SDS011;71529;47.484;19.064;2023-07-30T00:37:46;3.47;;;2.15;;
82005;SDS011;71529;47.484;19.064;2023-07-30T00:40:15;3.05;;;2.53;;
82005;SDS011;71529;47.484;19.064;2023-07-30T00:42:43;3.08;;;2.22;;
82005;SDS011;71529;47.484;19.064;2023-07-30T00:45:11;2.35;;;1.90;;
82005;SDS011;71529;47.484;19.064;2023-07-30T00:47:39;3.42;;;2.13;;
82005;SDS011;71529;47.484;19.064;2023-07-30T00:50:08;2.67;;;2.05;;
82005;SDS011;71529;47.484;19.064;2023-07-30T00:52:40;2.30;;;1.88;;
82005;SDS011;71529;47.484;19.064;2023-07-30T00:55:08;3.22;;;1.65;;
82005;SDS011;71529;47.484;19.064;2023-07-30T00:57:36;2.13;;;1.92;;
82005;SDS011;71529;47.484;19.064;2023-07-30T01:00:05;1.85;;;1.75;;
82005;SDS011;71529;47.484;19.064;2023-07-30T01:02:35;1.92;;;1.80;;
82005;SDS011;71529;47.484;19.064;2023-07-30T01:05:04;2.03;;;1.83;;
82005;SDS011;71529;47.484;19.064;2023-07-30T01:07:32;2.00;;;1.85;;
82005;SDS011;71529;47.484;19.064;2023-07-30T01:10:02;2.03;;;1.60;;
82005;SDS011;71529;47.484;19.064;2023-07-30T01:12:30;2.70;;;2.10;;
82005;SDS011;71529;47.484;19.064;2023-07-30T01:15:00;2.88;;;2.05;;
82005;SDS011;71529;47.484;19.064;2023-07-30T01:17:29;2.03;;;1.85;;
82005;SDS011;71529;47.484;19.064;2023-07-30T01:19:58;2.67;;;2.10;;
82005;SDS011;71529;47.484;19.064;2023-07-30T01:22:27;1.77;;;1.63;;
82005;SDS011;71529;47.484;19.064;2023-07-30T01:24:55;1.75;;;1.65;;
82005;SDS011;71529;47.484;19.064;2023-07-30T01:27:24;1.90;;;1.65;;
82005;SDS011;71529;47.484;19.064;2023-07-30T01:29:56;3.30;;;2.30;;
82005;SDS011;71529;47.484;19.064;2023-07-30T01:32:31;2.05;;;1.85;;
82005;SDS011;71529;47.484;19.064;2023-07-30T01:35:00;3.00;;;2.10;;
82005;SDS011;71529;47.484;19.064;2023-07-30T01:37:32;2.25;;;2.05;;
82005;SDS011;71529;47.484;19.064;2023-07-30T01:40:01;3.45;;;2.00;;
82005;SDS011;71529;47.484;19.064;2023-07-30T01:42:29;2.13;;;1.90;;
82005;SDS011;71529;47.484;19.064;2023-07-30T01:44:57;2.35;;;1.90;;
82005;SDS011;71529;47.484;19.064;2023-07-30T01:47:25;2.17;;;1.98;;
82005;SDS011;71529;47.484;19.064;2023-07-30T01:49:53;2.22;;;1.75;;
82005;SDS011;71529;47.484;19.064;2023-07-30T01:52:21;2.03;;;1.77;;
82005;SDS011;71529;47.484;19.064;2023-07-30T01:54:51;2.50;;;1.80;;
82005;SDS011;71529;47.484;19.064;2023-07-30T01:57:19;2.10;;;1.48;;
82005;SDS011;71529;47.484;19.064;2023-07-30T01:59:47;3.78;;;1.95;;
82005;SDS011;71529;47.484;19.064;2023-07-30T02:02:15;2.20;;;2.00;;
82005;SDS011;71529;47.484;19.064;2023-07-30T02:04:43;3.63;;;1.88;;
82005;SDS011;71529;47.484;19.064;2023-07-30T02:07:11;2.83;;;1.83;;
82005;SDS011;71529;47.484;19.064;2023-07-30T02:09:39;3.80;;;2.00;;
82005;SDS011;71529;47.484;19.064;2023-07-30T02:12:08;2.30;;;2.10;;
82005;SDS011;71529;47.484;19.064;2023-07-30T02:14:37;3.28;;;1.70;;
82005;SDS011;71529;47.484;19.064;2023-07-30T02:17:05;3.60;;;1.90;;
82005;SDS011;71529;47.484;19.064;2023-07-30T02:19:33;3.75;;;1.73;;
82005;SDS011;71529;47.484;19.064;2023-07-30T02:22:01;2.88;;;2.00;;
82005;SDS011;71529;47.484;19.064;2023-07-30T02:24:29;3.15;;;2.00;;
82005;SDS011;71529;47.484;19.064;2023-07-30T02:26:57;2.00;;;1.80;;
82005;SDS011;71529;47.484;19.064;2023-07-30T02:29:27;2.58;;;2.00;;
82005;SDS011;71529;47.484;19.064;2023-07-30T02:31:55;2.03;;;1.80;;
82005;SDS011;71529;47.484;19.064;2023-07-30T02:34:23;2.90;;;1.90;;
82005;SDS011;71529;47.484;19.064;2023-07-30T02:36:51;2.08;;;1.80;;
82005;SDS011;71529;47.484;19.064;2023-07-30T02:39:19;1.90;;;1.80;;
82005;SDS011;71529;47.484;19.064;2023-07-30T02:41:47;2.22;;;1.85;;
82005;SDS011;71529;47.484;19.064;2023-07-30T02:44:15;2.00;;;1.80;;
82005;SDS011;71529;47.484;19.064;2023-07-30T02:46:44;2.88;;;2.20;;
82005;SDS011;71529;47.484;19.064;2023-07-30T02:49:12;3.25;;;2.03;;
82005;SDS011;71529;47.484;19.064;2023-07-30T02:51:40;2.30;;;2.10;;
82005;SDS011;71529;47.484;19.064;2023-07-30T02:54:09;2.63;;;2.10;;
82005;SDS011;71529;47.484;19.064;2023-07-30T02:56:37;3.45;;;2.20;;
82005;SDS011;71529;47.484;19.064;2023-07-30T02:59:05;2.42;;;2.13;;
82005;SDS011;71529;47.484;19.064;2023-07-30T03:01:33;2.75;;;1.92;;
82005;SDS011;71529;47.484;19.064;2023-07-30T03:04:04;3.17;;;2.10;;
82005;SDS011;71529;47.484;19.064;2023-07-30T03:06:33;2.42;;;2.20;;
82005;SDS011;71529;47.484;19.064;2023-07-30T03:09:00;3.03;;;2.00;;
82005;SDS011;71529;47.484;19.064;2023-07-30T03:11:29;3.13;;;1.75;;
82005;SDS011;71529;47.484;19.064;2023-07-30T03:13:57;3.13;;;2.00;;
82005;SDS011;71529;47.484;19.064;2023-07-30T03:16:25;3.17;;;2.28;;
82005;SDS011;71529;47.484;19.064;2023-07-30T03:18:53;3.67;;;1.75;;
82005;SDS011;71529;47.484;19.064;2023-07-30T03:21:22;2.35;;;1.90;;
82005;SDS011;71529;47.484;19.064;2023-07-30T03:23:50;2.38;;;2.17;;
82005;SDS011;71529;47.484;19.064;2023-07-30T03:26:18;7.65;;;1.80;;
82005;SDS011;71529;47.484;19.064;2023-07-30T03:28:46;3.28;;;2.03;;
82005;SDS011;71529;47.484;19.064;2023-07-30T03:31:14;2.88;;;2.10;;
82005;SDS011;71529;47.484;19.064;2023-07-30T03:33:42;2.90;;;2.08;;
82005;SDS011;71529;47.484;19.064;2023-07-30T03:36:12;3.85;;;2.15;;
82005;SDS011;71529;47.484;19.064;2023-07-30T03:38:42;4.70;;;2.45;;
82005;SDS011;71529;47.484;19.064;2023-07-30T03:41:10;4.70;;;2.47;;
82005;SDS011;71529;47.484;19.064;2023-07-30T03:43:38;2.50;;;2.28;;
82005;SDS011;71529;47.484;19.064;2023-07-30T03:46:06;5.93;;;2.17;;
82005;SDS011;71529;47.484;19.064;2023-07-30T03:48:34;3.42;;;2.00;;
82005;SDS011;71529;47.484;19.064;2023-07-30T03:51:02;2.45;;;2.25;;
82005;SDS011;71529;47.484;19.064;2023-07-30T03:53:30;2.30;;;2.10;;
82005;SDS011;71529;47.484;19.064;2023-07-30T03:56:00;2.03;;;1.83;;
82005;SDS011;71529;47.484;19.064;2023-07-30T03:58:28;3.28;;;2.33;;
82005;SDS011;71529;47.484;19.064;2023-07-30T04:00:57;6.13;;;2.05;;
82005;SDS011;71529;47.484;19.064;2023-07-30T04:03:25;4.82;;;2.63;;
82005;SDS011;71529;47.484;19.064;2023-07-30T04:05:53;3.45;;;2.08;;
82005;SDS011;71529;47.484;19.064;2023-07-30T04:08:21;3.45;;;2.50;;
82005;SDS011;71529;47.484;19.064;2023-07-30T04:10:49;5.88;;;2.63;;
82005;SDS011;71529;47.484;19.064;2023-07-30T04:13:18;2.85;;;2.03;;
82005;SDS011;71529;47.484;19.064;2023-07-30T04:15:47;3.00;;;1.98;;
82005;SDS011;71529;47.484;19.064;2023-07-30T04:18:15;3.95;;;2.47;;
82005;SDS011;71529;47.484;19.064;2023-07-30T04:20:43;3.10;;;1.88;;
82005;SDS011;71529;47.484;19.064;2023-07-30T04:23:11;3.72;;;2.00;;
82005;SDS011;71529;47.484;19.064;2023-07-30T04:25:39;2.60;;;2.00;;
82005;SDS011;71529;47.484;19.064;2023-07-30T04:28:07;2.75;;;2.00;;
82005;SDS011;71529;47.484;19.064;2023-07-30T04:30:36;2.88;;;2.20;;
82005;SDS011;71529;47.484;19.064;2023-07-30T04:33:04;4.57;;;2.17;;
82005;SDS011;71529;47.484;19.064;2023-07-30T04:35:32;2.50;;;2.30;;
82005;SDS011;71529;47.484;19.064;2023-07-30T04:38:01;2.63;;;2.00;;
82005;SDS011;71529;47.484;19.064;2023-07-30T04:40:29;3.03;;;2.60;;
82005;SDS011;71529;47.484;19.064;2023-07-30T04:42:57;3.17;;;2.00;;
82005;SDS011;71529;47.484;19.064;2023-07-30T04:45:25;4.20;;;2.17;;
82005;SDS011;71529;47.484;19.064;2023-07-30T04:47:54;2.95;;;2.15;;
82005;SDS011;71529;47.484;19.064;2023-07-30T04:50:22;2.38;;;2.17;;
82005;SDS011;71529;47.484;19.064;2023-07-30T04:52:51;3.42;;;2.45;;
82005;SDS011;71529;47.484;19.064;2023-07-30T04:55:19;3.38;;;2.22;;
82005;SDS011;71529;47.484;19.064;2023-07-30T04:57:47;3.33;;;2.78;;
82005;SDS011;71529;47.484;19.064;2023-07-30T05:00:15;3.58;;;2.40;;
82005;SDS011;71529;47.484;19.064;2023-07-30T05:02:43;3.42;;;2.03;;
82005;SDS011;71529;47.484;19.064;2023-07-30T05:05:13;3.15;;;2.60;;
82005;SDS011;71529;47.484;19.064;2023-07-30T05:07:45;4.38;;;2.35;;
82005;SDS011;71529;47.484;19.064;2023-07-30T05:10:14;3.10;;;2.05;;
82005;SDS011;71529;47.484;19.064;2023-07-30T05:12:42;5.10;;;2.35;;
82005;SDS011;71529;47.484;19.064;2023-07-30T05:15:10;2.95;;;2.65;;
82005;SDS011;71529;47.484;19.064;2023-07-30T05:17:38;2.78;;;2.45;;
82005;SDS011;71529;47.484;19.064;2023-07-30T05:20:07;3.60;;;2.40;;
82005;SDS011;71529;47.484;19.064;2023-07-30T05:22:37;7.18;;;4.57;;
82005;SDS011;71529;47.484;19.064;2023-07-30T05:25:06;5.30;;;3.67;;
82005;SDS011;71529;47.484;19.064;2023-07-30T05:27:34;4.32;;;3.40;;
82005;SDS011;71529;47.484;19.064;2023-07-30T05:30:03;3.78;;;2.78;;
82005;SDS011;71529;47.484;19.064;2023-07-30T05:32:31;4.57;;;2.78;;
82005;SDS011;71529;47.484;19.064;2023-07-30T05:34:59;4.82;;;2.70;;
82005;SDS011;71529;47.484;19.064;2023-07-30T05:37:28;3.28;;;2.63;;
82005;SDS011;71529;47.484;19.064;2023-07-30T05:39:57;3.08;;;2.78;;
82005;SDS011;71529;47.484;19.064;2023-07-30T05:42:25;4.53;;;2.92;;
82005;SDS011;71529;47.484;19.064;2023-07-30T05:44:53;2.90;;;2.55;;
82005;SDS011;71529;47.484;19.064;2023-07-30T05:47:21;4.30;;;2.60;;
82005;SDS011;71529;47.484;19.064;2023-07-30T05:49:49;3.28;;;2.50;;
82005;SDS011;71529;47.484;19.064;2023-07-30T05:52:17;3.08;;;2.58;;
82005;SDS011;71529;47.484;19.064;2023-07-30T05:54:45;2.90;;;2.53;;
82005;SDS011;71529;47.484;19.064;2023-07-30T05:57:15;3.00;;;2.42;;
82005;SDS011;71529;47.484;19.064;2023-07-30T05:59:43;2.88;;;2.30;;
82005;SDS011;71529;47.484;19.064;2023-07-30T06:02:11;3.75;;;2.72;;
82005;SDS011;71529;47.484;19.064;2023-07-30T06:04:39;2.90;;;2.60;;
82005;SDS011;71529;47.484;19.064;2023-07-30T06:07:07;3.58;;;2.50;;
82005;SDS011;71529;47.484;19.064;2023-07-30T06:09:35;3.22;;;2.45;;
82005;SDS011;71529;47.484;19.064;2023-07-30T06:12:03;3.65;;;2.70;;
82005;SDS011;71529;47.484;19.064;2023-07-30T06:14:32;3.90;;;2.38;;
82005;SDS011;71529;47.484;19.064;2023-07-30T06:17:00;2.97;;;2.25;;
82005;SDS011;71529;47.484;19.064;2023-07-30T06:19:29;2.47;;;2.25;;
82005;SDS011;71529;47.484;19.064;2023-07-30T06:21:57;2.50;;;2.30;;
82005;SDS011;71529;47.484;19.064;2023-07-30T06:24:25;3.13;;;2.20;;
82005;SDS011;71529;47.484;19.064;2023-07-30T06:27:10;3.85;;;2.50;;
82005;SDS011;71529;47.484;19.064;2023-07-30T06:29:40;6.05;;;2.30;;
82005;SDS011;71529;47.484;19.064;2023-07-30T06:32:08;3.03;;;2.08;;
82005;SDS011;71529;47.484;19.064;2023-07-30T06:34:36;2.83;;;2.13;;
82005;SDS011;71529;47.484;19.064;2023-07-30T06:37:04;3.85;;;1.95;;
82005;SDS011;71529;47.484;19.064;2023-07-30T06:39:32;3.85;;;2.50;;
82005;SDS011;71529;47.484;19.064;2023-07-30T06:42:00;3.78;;;3.15;;
82005;SDS011;71529;47.484;19.064;2023-07-30T06:44:28;4.47;;;2.83;;
82005;SDS011;71529;47.484;19.064;2023-07-30T06:46:57;4.05;;;2.88;;
82005;SDS011;71529;47.484;19.064;2023-07-30T06:49:26;3.38;;;2.72;;
82005;SDS011;71529;47.484;19.064;2023-07-30T06:51:55;4.63;;;2.85;;
82005;SDS011;71529;47.484;19.064;2023-07-30T06:54:23;3.70;;;2.50;;
82005;SDS011;71529;47.484;19.064;2023-07-30T06:56:51;3.10;;;2.53;;
82005;SDS011;71529;47.484;19.064;2023-07-30T06:59:19;4.18;;;2.63;;
82005;SDS011;71529;47.484;19.064;2023-07-30T07:01:46;4.35;;;2.28;;
82005;SDS011;71529;47.484;19.064;2023-07-30T07:04:16;2.40;;;1.92;;
82005;SDS011;71529;47.484;19.064;2023-07-30T07:06:44;2.60;;;2.40;;
82005;SDS011;71529;47.484;19.064;2023-07-30T07:09:12;2.88;;;2.45;;
82005;SDS011;71529;47.484;19.064;2023-07-30T07:11:40;6.03;;;2.88;;
82005;SDS011;71529;47.484;19.064;2023-07-30T07:14:08;2.60;;;2.40;;
82005;SDS011;71529;47.484;19.064;2023-07-30T07:16:35;2.35;;;2.05;;
82005;SDS011;71529;47.484;19.064;2023-07-30T07:19:04;3.95;;;2.40;;
82005;SDS011;71529;47.484;19.064;2023-07-30T07:21:33;3.10;;;2.08;;
82005;SDS011;71529;47.484;19.064;2023-07-30T07:24:02;3.10;;;2.20;;
82005;SDS011;71529;47.484;19.064;2023-07-30T07:26:30;3.35;;;2.38;;
82005;SDS011;71529;47.484;19.064;2023-07-30T07:28:58;3.88;;;2.67;;
82005;SDS011;71529;47.484;19.064;2023-07-30T07:31:26;4.22;;;2.72;;
82005;SDS011;71529;47.484;19.064;2023-07-30T07:33:54;4.45;;;2.30;;
82005;SDS011;71529;47.484;19.064;2023-07-30T07:36:23;5.30;;;2.35;;
82005;SDS011;71529;47.484;19.064;2023-07-30T07:38:52;3.28;;;2.42;;
82005;SDS011;71529;47.484;19.064;2023-07-30T07:41:20;4.63;;;2.67;;
82005;SDS011;71529;47.484;19.064;2023-07-30T07:43:48;4.63;;;2.30;;
82005;SDS011;71529;47.484;19.064;2023-07-30T07:46:19;4.13;;;2.30;;
82005;SDS011;71529;47.484;19.064;2023-07-30T07:48:47;5.93;;;4.63;;
82005;SDS011;71529;47.484;19.064;2023-07-30T07:51:15;6.05;;;4.07;;
82005;SDS011;71529;47.484;19.064;2023-07-30T07:53:43;5.93;;;3.58;;
82005;SDS011;71529;47.484;19.064;2023-07-30T07:56:12;5.40;;;3.40;;
82005;SDS011;71529;47.484;19.064;2023-07-30T07:58:40;3.15;;;2.63;;
82005;SDS011;71529;47.484;19.064;2023-07-30T08:01:09;5.18;;;3.10;;
82005;SDS011;71529;47.484;19.064;2023-07-30T08:03:37;4.47;;;3.50;;
82005;SDS011;71529;47.484;19.064;2023-07-30T08:06:05;4.82;;;3.10;;
82005;SDS011;71529;47.484;19.064;2023-07-30T08:08:34;4.53;;;2.97;;
82005;SDS011;71529;47.484;19.064;2023-07-30T08:11:04;6.32;;;4.47;;
82005;SDS011;71529;47.484;19.064;2023-07-30T08:13:34;5.75;;;3.60;;
82005;SDS011;71529;47.484;19.064;2023-07-30T08:16:03;4.07;;;3.00;;
82005;SDS011;71529;47.484;19.064;2023-07-30T08:18:31;5.15;;;2.90;;
82005;SDS011;71529;47.484;19.064;2023-07-30T08:20:59;3.15;;;2.83;;
82005;SDS011;71529;47.484;19.064;2023-07-30T08:23:27;3.15;;;2.72;;
82005;SDS011;71529;47.484;19.064;2023-07-30T08:25:55;4.95;;;2.75;;
82005;SDS011;71529;47.484;19.064;2023-07-30T08:28:23;4.72;;;2.70;;
82005;SDS011;71529;47.484;19.064;2023-07-30T08:30:52;5.40;;;2.70;;
82005;SDS011;71529;47.484;19.064;2023-07-30T08:33:20;4.22;;;3.00;;
82005;SDS011;71529;47.484;19.064;2023-07-30T08:35:48;3.90;;;2.42;;
82005;SDS011;71529;47.484;19.064;2023-07-30T08:38:16;9.20;;;7.90;;
82005;SDS011;71529;47.484;19.064;2023-07-30T08:40:44;8.88;;;7.78;;
82005;SDS011;71529;47.484;19.064;2023-07-30T08:43:12;11.90;;;9.10;;
82005;SDS011;71529;47.484;19.064;2023-07-30T08:45:40;21.70;;;11.82;;
82005;SDS011;71529;47.484;19.064;2023-07-30T08:48:13;13.07;;;9.23;;
82005;SDS011;71529;47.484;19.064;2023-07-30T08:50:41;10.88;;;6.45;;
82005;SDS011;71529;47.484;19.064;2023-07-30T08:53:09;5.32;;;4.53;;
82005;SDS011;71529;47.484;19.064;2023-07-30T08:55:38;3.85;;;3.33;;
82005;SDS011;71529;47.484;19.064;2023-07-30T08:58:07;4.20;;;3.60;;
82005;SDS011;71529;47.484;19.064;2023-07-30T09:00:38;4.47;;;3.50;;
82005;SDS011;71529;47.484;19.064;2023-07-30T09:03:08;8.20;;;4.18;;
82005;SDS011;71529;47.484;19.064;2023-07-30T09:05:39;4.68;;;2.83;;
82005;SDS011;71529;47.484;19.064;2023-07-30T09:08:07;6.18;;;3.78;;
82005;SDS011;71529;47.484;19.064;2023-07-30T09:10:37;5.60;;;4.70;;
82005;SDS011;71529;47.484;19.064;2023-07-30T09:13:05;8.25;;;5.65;;
82005;SDS011;71529;47.484;19.064;2023-07-30T09:15:35;11.48;;;4.53;;
82005;SDS011;71529;47.484;19.064;2023-07-30T09:18:05;8.52;;;3.80;;
82005;SDS011;71529;47.484;19.064;2023-07-30T09:20:39;5.50;;;3.53;;
82005;SDS011;71529;47.484;19.064;2023-07-30T09:25:37;7.10;;;3.50;;
82005;SDS011;71529;47.484;19.064;2023-07-30T09:28:06;6.10;;;3.22;;
82005;SDS011;71529;47.484;19.064;2023-07-30T09:30:34;3.63;;;2.90;;
82005;SDS011;71529;47.484;19.064;2023-07-30T09:33:02;3.90;;;3.20;;
82005;SDS011;71529;47.484;19.064;2023-07-30T09:35:32;5.47;;;3.13;;
82005;SDS011;71529;47.484;19.064;2023-07-30T09:38:07;4.93;;;3.03;;
82005;SDS011;71529;47.484;19.064;2023-07-30T09:40:36;4.00;;;2.88;;
82005;SDS011;71529;47.484;19.064;2023-07-30T09:43:05;4.28;;;3.10;;
82005;SDS011;71529;47.484;19.064;2023-07-30T09:45:34;3.83;;;2.85;;
82005;SDS011;71529;47.484;19.064;2023-07-30T09:48:04;4.35;;;2.90;;
82005;SDS011;71529;47.484;19.064;2023-07-30T09:50:33;3.55;;;2.97;;
82005;SDS011;71529;47.484;19.064;2023-07-30T09:53:02;6.07;;;3.00;;
82005;SDS011;71529;47.484;19.064;2023-07-30T09:55:32;3.67;;;2.95;;
82005;SDS011;71529;47.484;19.064;2023-07-30T09:58:01;3.28;;;2.80;;
82005;SDS011;71529;47.484;19.064;2023-07-30T10:00:29;5.07;;;3.25;;
82005;SDS011;71529;47.484;19.064;2023-07-30T10:02:58;3.65;;;2.90;;
82005;SDS011;71529;47.484;19.064;2023-07-30T10:05:29;8.57;;;5.78;;
82005;SDS011;71529;47.484;19.064;2023-07-30T10:08:01;5.88;;;3.72;;
82005;SDS011;71529;47.484;19.064;2023-07-30T10:10:35;5.18;;;3.55;;
82005;SDS011;71529;47.484;19.064;2023-07-30T10:13:05;5.22;;;3.78;;
82005;SDS011;71529;47.484;19.064;2023-07-30T10:15:35;4.35;;;3.42;;
82005;SDS011;71529;47.484;19.064;2023-07-30T10:18:05;5.70;;;3.08;;
82005;SDS011;71529;47.484;19.064;2023-07-30T10:20:33;6.45;;;2.80;;
82005;SDS011;71529;47.484;19.064;2023-07-30T10:23:03;5.32;;;3.35;;
82005;SDS011;71529;47.484;19.064;2023-07-30T10:25:43;4.63;;;3.05;;
82005;SDS011;71529;47.484;19.064;2023-07-30T10:28:31;6.60;;;3.15;;
82005;SDS011;71529;47.484;19.064;2023-07-30T10:31:01;3.42;;;2.53;;
82005;SDS011;71529;47.484;19.064;2023-07-30T10:33:46;4.55;;;3.00;;
82005;SDS011;71529;47.484;19.064;2023-07-30T10:36:17;5.75;;;3.42;;
82005;SDS011;71529;47.484;19.064;2023-07-30T10:38:46;6.13;;;3.80;;
82005;SDS011;71529;47.484;19.064;2023-07-30T10:41:15;6.43;;;3.80;;
82005;SDS011;71529;47.484;19.064;2023-07-30T10:43:46;6.60;;;3.17;;
82005;SDS011;71529;47.484;19.064;2023-07-30T10:46:15;5.15;;;3.10;;
82005;SDS011;71529;47.484;19.064;2023-07-30T10:48:45;6.97;;;2.90;;
82005;SDS011;71529;47.484;19.064;2023-07-30T10:51:14;9.30;;;3.30;;
82005;SDS011;71529;47.484;19.064;2023-07-30T10:53:43;3.75;;;2.88;;
82005;SDS011;71529;47.484;19.064;2023-07-30T10:56:11;3.03;;;2.72;;
82005;SDS011;71529;47.484;19.064;2023-07-30T10:58:41;4.57;;;3.25;;
82005;SDS011;71529;47.484;19.064;2023-07-30T11:01:11;5.40;;;3.25;;
82005;SDS011;71529;47.484;19.064;2023-07-30T11:03:39;4.10;;;2.83;;
82005;SDS011;71529;47.484;19.064;2023-07-30T11:06:08;5.75;;;3.28;;
82005;SDS011;71529;47.484;19.064;2023-07-30T11:08:36;6.00;;;4.35;;
82005;SDS011;71529;47.484;19.064;2023-07-30T11:11:06;5.10;;;4.25;;
82005;SDS011;71529;47.484;19.064;2023-07-30T11:13:35;7.35;;;3.95;;
82005;SDS011;71529;47.484;19.064;2023-07-30T11:16:06;5.47;;;3.58;;
82005;SDS011;71529;47.484;19.064;2023-07-30T11:18:35;8.77;;;5.40;;
82005;SDS011;71529;47.484;19.064;2023-07-30T11:21:04;6.97;;;3.88;;
82005;SDS011;71529;47.484;19.064;2023-07-30T11:23:33;5.47;;;3.70;;
82005;SDS011;71529;47.484;19.064;2023-07-30T11:26:02;3.90;;;3.50;;
82005;SDS011;71529;47.484;19.064;2023-07-30T11:28:32;5.85;;;3.72;;
82005;SDS011;71529;47.484;19.064;2023-07-30T11:31:04;7.80;;;3.35;;
82005;SDS011;71529;47.484;19.064;2023-07-30T11:33:35;6.65;;;3.88;;
82005;SDS011;71529;47.484;19.064;2023-07-30T11:36:04;6.05;;;3.38;;
82005;SDS011;71529;47.484;19.064;2023-07-30T11:38:35;4.22;;;3.53;;
82005;SDS011;71529;47.484;19.064;2023-07-30T11:41:03;6.00;;;3.60;;
82005;SDS011;71529;47.484;19.064;2023-07-30T11:43:32;6.90;;;3.67;;
82005;SDS011;71529;47.484;19.064;2023-07-30T11:46:10;6.18;;;3.90;;
82005;SDS011;71529;47.484;19.064;2023-07-30T11:48:41;6.57;;;4.80;;
82005;SDS011;71529;47.484;19.064;2023-07-30T11:51:18;7.90;;;4.43;;
82005;SDS011;71529;47.484;19.064;2023-07-30T11:53:48;5.50;;;4.63;;
82005;SDS011;71529;47.484;19.064;2023-07-30T11:56:21;6.30;;;3.83;;
82005;SDS011;71529;47.484;19.064;2023-07-30T11:58:54;9.75;;;3.47;;
82005;SDS011;71529;47.484;19.064;2023-07-30T12:01:25;4.43;;;3.75;;
82005;SDS011;71529;47.484;19.064;2023-07-30T12:03:54;3.78;;;3.15;;
82005;SDS011;71529;47.484;19.064;2023-07-30T12:06:23;6.30;;;3.20;;
82005;SDS011;71529;47.484;19.064;2023-07-30T12:08:51;3.65;;;3.35;;
82005;SDS011;71529;47.484;19.064;2023-07-30T12:11:19;4.40;;;3.10;;
82005;SDS011;71529;47.484;19.064;2023-07-30T12:13:47;6.47;;;3.80;;
82005;SDS011;71529;47.484;19.064;2023-07-30T12:16:17;4.22;;;3.50;;
82005;SDS011;71529;47.484;19.064;2023-07-30T12:18:49;3.90;;;3.50;;
82005;SDS011;71529;47.484;19.064;2023-07-30T12:21:17;5.15;;;4.15;;
82005;SDS011;71529;47.484;19.064;2023-07-30T12:23:45;6.07;;;3.75;;
82005;SDS011;71529;47.484;19.064;2023-07-30T12:26:14;3.97;;;3.50;;
82005;SDS011;71529;47.484;19.064;2023-07-30T12:28:42;5.00;;;3.60;;
82005;SDS011;71529;47.484;19.064;2023-07-30T12:31:10;5.53;;;3.22;;
82005;SDS011;71529;47.484;19.064;2023-07-30T12:33:38;5.68;;;4.57;;
82005;SDS011;71529;47.484;19.064;2023-07-30T12:36:08;6.88;;;4.70;;
82005;SDS011;71529;47.484;19.064;2023-07-30T12:38:35;6.45;;;4.90;;
82005;SDS011;71529;47.484;19.064;2023-07-30T12:41:04;7.10;;;5.00;;
82005;SDS011;71529;47.484;19.064;2023-07-30T12:43:31;5.32;;;4.40;;
82005;SDS011;71529;47.484;19.064;2023-07-30T12:45:59;4.15;;;3.45;;
82005;SDS011;71529;47.484;19.064;2023-07-30T12:48:28;5.10;;;3.50;;
82005;SDS011;71529;47.484;19.064;2023-07-30T12:50:56;6.78;;;3.13;;
82005;SDS011;71529;47.484;19.064;2023-07-30T12:53:26;7.72;;;4.78;;
82005;SDS011;71529;47.484;19.064;2023-07-30T12:55:54;4.03;;;3.38;;
82005;SDS011;71529;47.484;19.064;2023-07-30T12:58:22;6.50;;;4.00;;
82005;SDS011;71529;47.484;19.064;2023-07-30T13:00:50;5.03;;;3.30;;
82005;SDS011;71529;47.484;19.064;2023-07-30T13:03:19;4.95;;;3.75;;
82005;SDS011;71529;47.484;19.064;2023-07-30T13:05:49;6.57;;;4.20;;
82005;SDS011;71529;47.484;19.064;2023-07-30T13:08:18;7.05;;;5.15;;
82005;SDS011;71529;47.484;19.064;2023-07-30T13:10:49;5.45;;;3.88;;
82005;SDS011;71529;47.484;19.064;2023-07-30T13:13:18;5.22;;;4.03;;
82005;SDS011;71529;47.484;19.064;2023-07-30T13:15:47;4.65;;;3.60;;
82005;SDS011;71529;47.484;19.064;2023-07-30T13:18:17;4.22;;;2.92;;
82005;SDS011;71529;47.484;19.064;2023-07-30T13:20:45;3.40;;;3.10;;
82005;SDS011;71529;47.484;19.064;2023-07-30T13:23:14;5.00;;;3.15;;
82005;SDS011;71529;47.484;19.064;2023-07-30T13:25:43;4.93;;;4.00;;
82005;SDS011;71529;47.484;19.064;2023-07-30T13:28:13;3.85;;;3.45;;
82005;SDS011;71529;47.484;19.064;2023-07-30T13:33:13;7.25;;;2.70;;
82005;SDS011;71529;47.484;19.064;2023-07-30T13:35:42;3.67;;;2.88;;
82005;SDS011;71529;47.484;19.064;2023-07-30T13:38:12;4.72;;;2.70;;
82005;SDS011;71529;47.484;19.064;2023-07-30T13:40:43;5.88;;;2.75;;
82005;SDS011;71529;47.484;19.064;2023-07-30T13:43:11;4.22;;;2.33;;
82005;SDS011;71529;47.484;19.064;2023-07-30T13:45:42;3.78;;;2.90;;
82005;SDS011;71529;47.484;19.064;2023-07-30T13:48:11;13.93;;;3.10;;
82005;SDS011;71529;47.484;19.064;2023-07-30T13:50:39;7.35;;;3.83;;
82005;SDS011;71529;47.484;19.064;2023-07-30T13:53:08;4.90;;;3.00;;
82005;SDS011;71529;47.484;19.064;2023-07-30T13:55:36;4.65;;;3.20;;
82005;SDS011;71529;47.484;19.064;2023-07-30T13:58:05;6.10;;;3.80;;
82005;SDS011;71529;47.484;19.064;2023-07-30T14:00:35;5.18;;;3.90;;
82005;SDS011;71529;47.484;19.064;2023-07-30T14:03:04;4.30;;;3.40;;
82005;SDS011;71529;47.484;19.064;2023-07-30T14:05:36;4.53;;;3.78;;
82005;SDS011;71529;47.484;19.064;2023-07-30T14:08:05;4.13;;;3.38;;
82005;SDS011;71529;47.484;19.064;2023-07-30T14:10:33;8.95;;;3.60;;
82005;SDS011;71529;47.484;19.064;2023-07-30T14:13:02;6.10;;;3.53;;
82005;SDS011;71529;47.484;19.064;2023-07-30T14:15:31;5.88;;;3.35;;
82005;SDS011;71529;47.484;19.064;2023-07-30T14:18:01;8.85;;;4.35;;
82005;SDS011;71529;47.484;19.064;2023-07-30T14:20:30;4.18;;;3.65;;
82005;SDS011;71529;47.484;19.064;2023-07-30T14:22:58;6.40;;;3.20;;
82005;SDS011;71529;47.484;19.064;2023-07-30T14:25:28;3.22;;;2.92;;
82005;SDS011;71529;47.484;19.064;2023-07-30T14:27:56;4.05;;;3.17;;
82005;SDS011;71529;47.484;19.064;2023-07-30T14:30:24;3.70;;;3.30;;
82005;SDS011;71529;47.484;19.064;2023-07-30T14:32:53;10.82;;;5.38;;
82005;SDS011;71529;47.484;19.064;2023-07-30T14:35:24;8.65;;;5.30;;
82005;SDS011;71529;47.484;19.064;2023-07-30T14:37:53;5.43;;;3.70;;
82005;SDS011;71529;47.484;19.064;2023-07-30T14:40:21;4.50;;;3.70;;
82005;SDS011;71529;47.484;19.064;2023-07-30T14:42:49;4.38;;;2.97;;
82005;SDS011;71529;47.484;19.064;2023-07-30T14:45:18;6.55;;;3.13;;
82005;SDS011;71529;47.484;19.064;2023-07-30T14:47:46;6.50;;;3.10;;